Time;durP1;ratioP1;P1;durP2;ratioP2;P2;SDS_P1;SDS_P2;PMS_P1;PMS_P2;Temp;Humidity;BMP_temperature;BMP_pressure;BME280_temperature;BME280_humidity;BME280_pressure;Samples;Min_cycle;Max_cycle;Signal;HPM_P1;HPM_P2
2021/12/17 00:04:51;;;;;;;49.65;32.67;;;;;;;7.42;100.00;103957.00;5021652;28;20308;-69
2021/12/17 00:07:18;;;;;;;49.47;32.22;;;;;;;7.38;100.00;103942.72;5019942;28;20399;-66
2021/12/17 00:09:45;;;;;;;51.60;33.05;;;;;;;7.37;100.00;103946.44;5025375;28;20484;-66
2021/12/17 00:12:13;;;;;;;53.03;33.28;;;;;;;7.38;100.00;103936.38;5025833;28;20060;-66
2021/12/17 00:14:41;;;;;;;47.28;32.28;;;;;;;7.39;100.00;103938.09;5020311;28;20384;-67
2021/12/17 00:17:12;;;;;;;50.23;32.23;;;;;;;7.42;100.00;103933.25;5018686;28;20036;-67
2021/12/17 00:49:19;;;;;;;86.32;37.25;;;;;;;7.54;100.00;103934.03;5013366;28;20065;-66
2021/12/17 00:51:56;;;;;;;92.80;39.45;;;;;;;7.55;100.00;103935.75;5025160;28;20030;-66
2021/12/17 00:54:31;;;;;;;94.10;38.53;;;;;;;7.56;100.00;103939.38;5008087;28;20518;-67
2021/12/17 00:56:58;;;;;;;112.30;43.83;;;;;;;7.59;100.00;103937.22;5019523;28;20022;-66
2021/12/17 00:59:25;;;;;;;116.77;42.50;;;;;;;7.61;100.00;103931.63;5025101;28;20029;-66
2021/12/17 01:01:52;;;;;;;112.43;41.33;;;;;;;7.72;100.00;103934.28;5025374;28;20435;-67
2021/12/17 01:04:18;;;;;;;114.90;41.23;;;;;;;7.70;100.00;103936.25;5021540;28;20043;-66
2021/12/17 01:06:43;;;;;;;117.05;42.05;;;;;;;7.62;100.00;103938.84;5025031;28;20291;-66
2021/12/17 01:09:11;;;;;;;113.40;40.83;;;;;;;7.60;100.00;103935.34;5024228;28;20029;-66
2021/12/17 01:11:36;;;;;;;113.97;40.88;;;;;;;7.58;100.00;103927.28;5023952;28;20837;-67
2021/12/17 01:14:03;;;;;;;120.95;39.47;;;;;;;7.59;100.00;103929.00;5008476;28;20073;-67
2021/12/17 01:16:30;;;;;;;108.28;39.33;;;;;;;7.58;100.00;103935.50;5016763;28;20036;-66
2021/12/17 01:20:06;;;;;;;118.00;39.60;;;;;;;7.59;100.00;103931.75;5005229;28;20022;-67
2021/12/17 01:22:14;;;;;;;120.40;41.47;;;;;;;7.61;100.00;103920.69;4983254;28;20046;-66
2021/12/17 01:35:23;;;;;;;113.93;39.60;;;;;;;7.56;100.00;103910.16;5022354;28;20091;-66
2021/12/17 01:43:03;;;;;;;128.93;40.88;;;;;;;7.59;100.00;103906.28;5014300;28;20049;-67
2021/12/17 01:45:34;;;;;;;118.13;39.65;;;;;;;7.60;100.00;103906.13;5022866;28;20036;-66
2021/12/17 01:48:02;;;;;;;129.88;41.45;;;;;;;7.62;100.00;103908.75;5025028;28;20431;-66
2021/12/17 01:56:30;;;;;;;116.88;40.08;;;;;;;7.73;100.00;103919.59;5023102;28;20117;-67
2021/12/17 02:01:27;;;;;;;118.70;38.17;;;;;;;7.59;100.00;103919.94;5024761;28;20088;-66
2021/12/17 02:03:53;;;;;;;117.82;37.55;;;;;;;7.58;100.00;103923.69;5019690;28;20029;-66
2021/12/17 02:06:20;;;;;;;114.32;38.15;;;;;;;7.57;100.00;103921.97;5019946;28;20045;-66
2021/12/17 02:08:47;;;;;;;115.85;37.30;;;;;;;7.55;100.00;103919.34;5002472;28;20121;-67
2021/12/17 02:11:59;;;;;;;108.60;34.67;;;;;;;7.56;100.00;103922.97;5011523;28;20404;-66
2021/12/17 02:20:09;;;;;;;115.63;38.35;;;;;;;7.53;100.00;103924.09;5024152;28;20048;-67
2021/12/17 02:31:17;;;;;;;123.68;39.17;;;;;;;7.57;100.00;103925.56;5023890;28;20511;-66
2021/12/17 02:33:43;;;;;;;114.45;35.30;;;;;;;7.57;100.00;103924.69;5016166;28;20037;-66
2021/12/17 02:36:08;;;;;;;120.40;36.28;;;;;;;7.64;100.00;103925.88;5023417;28;20026;-66
2021/12/17 02:38:40;;;;;;;121.20;36.25;;;;;;;7.55;100.00;103933.00;5020981;28;20030;-67
2021/12/17 02:46:35;;;;;;;123.70;39.05;;;;;;;7.53;100.00;103927.69;5012092;28;20096;-66
2021/12/17 02:49:00;;;;;;;113.10;35.78;;;;;;;7.54;100.00;103925.81;5011081;28;20400;-66
2021/12/17 02:51:25;;;;;;;129.85;38.65;;;;;;;7.51;100.00;103923.38;5012558;28;20022;-67
2021/12/17 02:53:53;;;;;;;115.00;36.50;;;;;;;7.52;100.00;103928.69;5021660;28;20431;-66
2021/12/17 02:56:18;;;;;;;128.95;38.78;;;;;;;7.52;100.00;103920.50;5013669;28;20022;-66
2021/12/17 02:58:45;;;;;;;117.57;36.03;;;;;;;7.53;100.00;103924.09;5001988;28;20028;-66
2021/12/17 03:01:12;;;;;;;123.78;37.67;;;;;;;7.53;100.00;103919.47;5022039;28;20025;-66
2021/12/17 03:03:39;;;;;;;119.13;38.72;;;;;;;7.56;100.00;103931.19;5016219;28;20029;-66
2021/12/17 03:06:04;;;;;;;126.25;38.97;;;;;;;7.53;100.00;103932.28;5023256;28;20029;-67
2021/12/17 03:08:30;;;;;;;131.02;40.35;;;;;;;7.52;100.00;103925.97;5023345;28;20453;-66
2021/12/17 03:10:57;;;;;;;129.38;39.80;;;;;;;7.53;100.00;103918.63;5015759;28;20034;-66
2021/12/17 03:13:24;;;;;;;132.55;37.92;;;;;;;7.53;100.00;103916.75;5016438;28;20104;-66
2021/12/17 03:15:56;;;;;;;129.65;38.70;;;;;;;7.58;100.00;103920.94;5023360;28;20025;-66
2021/12/17 03:23:41;;;;;;;127.65;38.58;;;;;;;7.68;100.00;103930.06;5003156;28;20045;-67
2021/12/17 03:26:13;;;;;;;116.07;35.35;;;;;;;7.86;100.00;103922.97;5012095;28;20112;-66
2021/12/17 03:28:41;;;;;;;117.93;37.83;;;;;;;7.76;100.00;103920.19;5023145;28;20022;-66
2021/12/17 03:31:08;;;;;;;126.05;38.90;;;;;;;7.69;100.00;103924.47;5015083;28;20041;-66
2021/12/17 03:33:34;;;;;;;132.23;41.17;;;;;;;7.73;100.00;103928.66;5011395;28;20036;-66
2021/12/17 03:36:00;;;;;;;131.10;38.67;;;;;;;7.75;100.00;103914.84;5023224;28;20101;-67
2021/12/17 03:38:26;;;;;;;135.65;39.17;;;;;;;7.63;100.00;103918.69;5022695;28;20171;-66
2021/12/17 03:41:03;;;;;;;134.15;38.78;;;;;;;7.57;100.00;103925.56;5016760;28;20109;-66
2021/12/17 03:43:30;;;;;;;139.48;40.80;;;;;;;7.54;100.00;103929.41;5022038;28;20487;-66
2021/12/17 03:45:56;;;;;;;132.82;38.05;;;;;;;7.55;100.00;103930.28;5022665;28;20171;-66
2021/12/17 03:48:22;;;;;;;124.50;39.58;;;;;;;7.60;100.00;103933.47;5004494;28;20382;-66
2021/12/17 03:50:48;;;;;;;126.80;35.78;;;;;;;7.51;100.00;103926.09;5008567;28;20384;-66
2021/12/17 03:53:13;;;;;;;135.60;40.67;;;;;;;7.54;100.00;103928.56;5023338;28;20041;-66
2021/12/17 03:55:38;;;;;;;132.25;38.47;;;;;;;7.53;100.00;103924.09;5021712;28;20029;-66
2021/12/17 03:58:04;;;;;;;127.55;38.50;;;;;;;7.53;100.00;103929.56;5022212;28;20037;-66
2021/12/17 04:00:30;;;;;;;129.07;38.20;;;;;;;7.53;100.00;103930.44;5017665;28;20026;-66
2021/12/17 04:02:56;;;;;;;128.77;39.38;;;;;;;7.61;100.00;103924.28;5018150;28;20100;-67
2021/12/17 04:05:22;;;;;;;128.40;36.53;;;;;;;7.60;100.00;103922.53;5023599;28;20120;-66
2021/12/17 04:07:48;;;;;;;123.38;36.17;;;;;;;7.54;100.00;103921.22;5024162;28;20041;-66
2021/12/17 04:10:14;;;;;;;128.05;36.67;;;;;;;7.56;100.00;103922.97;5005111;28;20080;-66
2021/12/17 04:12:53;;;;;;;110.45;34.10;;;;;;;7.69;100.00;103919.00;5021321;28;20036;-67
2021/12/17 04:15:18;;;;;;;118.25;35.15;;;;;;;7.56;100.00;103914.75;5025604;28;20033;-67
2021/12/17 04:17:48;;;;;;;128.02;37.35;;;;;;;7.53;100.00;103921.34;5025981;28;20032;-66
2021/12/17 04:20:13;;;;;;;129.30;36.15;;;;;;;7.53;100.00;103924.94;5014621;28;20029;-66
2021/12/17 04:22:39;;;;;;;121.57;35.42;;;;;;;7.53;100.00;103924.94;5026342;28;20037;-66
2021/12/17 04:25:04;;;;;;;111.38;32.72;;;;;;;7.58;100.00;103919.06;5024482;28;20456;-67
2021/12/17 04:27:30;;;;;;;100.00;33.80;;;;;;;7.84;99.71;103922.22;5025846;28;20032;-66
2021/12/17 04:29:57;;;;;;;114.07;34.72;;;;;;;7.58;100.00;103921.81;5020289;28;20025;-66
2021/12/17 04:32:22;;;;;;;120.90;35.03;;;;;;;7.53;100.00;103922.22;5025600;28;20514;-66
2021/12/17 04:34:48;;;;;;;109.90;32.75;;;;;;;7.51;100.00;103931.56;5025670;28;20083;-67
2021/12/17 04:37:14;;;;;;;113.45;34.08;;;;;;;7.50;100.00;103927.09;5014138;28;20030;-67
2021/12/17 04:39:39;;;;;;;115.20;32.63;;;;;;;7.49;100.00;103925.34;5011748;28;20022;-66
2021/12/17 04:45:00;;;;;;;105.32;31.55;;;;;;;7.51;100.00;103931.56;4988300;28;20501;-67
2021/12/17 04:58:40;;;;;;;90.45;32.13;;;;;;;7.49;100.00;103914.41;5015496;28;20099;-66
2021/12/17 05:01:11;;;;;;;97.50;31.67;;;;;;;7.49;100.00;103914.41;5023776;28;20033;-66
2021/12/17 05:03:37;;;;;;;85.10;32.25;;;;;;;7.48;100.00;103920.91;5025907;28;20026;-66
2021/12/17 05:06:02;;;;;;;84.20;31.73;;;;;;;7.49;100.00;103912.53;5024822;28;20044;-69
2021/12/17 05:08:28;;;;;;;88.60;33.90;;;;;;;7.47;100.00;103916.44;5022133;28;20045;-66
2021/12/17 05:19:22;;;;;;;85.28;32.40;;;;;;;7.46;100.00;103917.44;4965411;28;20031;-66
2021/12/17 05:21:48;;;;;;;88.60;32.00;;;;;;;7.45;100.00;103921.16;5019593;28;20030;-66
2021/12/17 05:24:13;;;;;;;85.88;30.98;;;;;;;7.43;100.00;103928.63;5023794;28;20029;-66
2021/12/17 05:26:38;;;;;;;81.63;30.95;;;;;;;7.42;100.00;103927.78;5021770;28;20057;-66
2021/12/17 05:29:04;;;;;;;85.82;31.05;;;;;;;7.43;100.00;103934.97;5009903;28;20021;-66
2021/12/17 05:31:29;;;;;;;81.78;31.05;;;;;;;7.42;100.00;103927.78;5024975;28;20103;-67
2021/12/17 05:33:56;;;;;;;76.40;27.83;;;;;;;7.42;100.00;103932.38;5025050;28;20395;-67
2021/12/17 05:36:21;;;;;;;79.72;28.70;;;;;;;7.41;100.00;103938.84;5024086;28;20192;-66
2021/12/17 05:38:46;;;;;;;78.13;30.33;;;;;;;7.41;100.00;103939.72;5009153;28;20044;-67
2021/12/17 05:41:12;;;;;;;85.88;30.67;;;;;;;7.41;100.00;103926.03;5005725;28;20025;-67
2021/12/17 05:43:38;;;;;;;81.60;30.45;;;;;;;7.39;100.00;103930.75;5024566;28;20033;-66
2021/12/17 05:46:10;;;;;;;81.05;29.85;;;;;;;7.38;100.00;103930.91;5024070;28;20038;-67
2021/12/17 05:48:36;;;;;;;80.22;28.77;;;;;;;7.39;100.00;103922.56;4992252;28;20543;-67
2021/12/17 05:51:06;;;;;;;77.13;29.40;;;;;;;7.40;100.00;103927.06;5004892;28;20597;-67
2021/12/17 05:53:32;;;;;;;80.25;31.98;;;;;;;7.38;100.00;103930.91;5004038;28;20044;-69
2021/12/17 05:55:57;;;;;;;81.68;32.58;;;;;;;7.37;100.00;103924.56;5020495;28;20413;-66
2021/12/17 05:58:24;;;;;;;82.20;31.27;;;;;;;7.38;100.00;103930.91;5023792;28;20036;-66
2021/12/17 06:00:50;;;;;;;76.68;30.20;;;;;;;7.37;100.00;103940.97;5024358;28;20025;-66
2021/12/17 06:03:17;;;;;;;78.03;29.13;;;;;;;7.37;100.00;103942.84;5023781;28;20029;-67
2021/12/17 06:05:43;;;;;;;80.60;29.70;;;;;;;7.38;100.00;103947.31;5014803;28;20121;-66
2021/12/17 06:08:09;;;;;;;72.95;29.10;;;;;;;7.35;100.00;103947.56;5022842;28;20191;-66
2021/12/17 06:10:34;;;;;;;78.15;31.52;;;;;;;7.35;100.00;103944.84;5014430;28;20030;-66
2021/12/17 06:12:59;;;;;;;82.18;32.75;;;;;;;7.35;100.00;103948.47;5016942;28;20071;-66
2021/12/17 06:15:25;;;;;;;86.70;33.00;;;;;;;7.34;100.00;103943.09;5022176;28;20032;-66
2021/12/17 06:17:52;;;;;;;90.25;38.63;;;;;;;7.34;100.00;103952.16;5009810;28;20116;-66
2021/12/17 06:20:20;;;;;;;106.38;43.72;;;;;;;7.33;100.00;103949.59;5008585;28;20081;-67
2021/12/17 06:22:46;;;;;;;101.70;42.08;;;;;;;7.32;100.00;103956.91;5020479;28;20120;-66
2021/12/17 06:25:11;;;;;;;93.53;39.53;;;;;;;7.31;100.00;103962.53;5022438;28;20053;-66
2021/12/17 06:27:38;;;;;;;85.72;35.30;;;;;;;7.31;100.00;103957.94;5023563;28;20388;-66
2021/12/17 06:30:09;;;;;;;81.18;33.95;;;;;;;7.37;100.00;103964.72;5023157;28;20034;-67
2021/12/17 06:32:34;;;;;;;87.97;36.20;;;;;;;7.31;100.00;103960.66;5024118;28;20033;-67
2021/12/17 06:35:00;;;;;;;82.28;35.10;;;;;;;7.32;100.00;103956.91;5021358;28;20052;-66
2021/12/17 06:37:25;;;;;;;119.50;37.45;;;;;;;7.31;100.00;103966.13;5023402;28;20045;-66
2021/12/17 06:39:50;;;;;;;93.65;34.72;;;;;;;7.30;100.00;103964.41;5023213;28;20225;-66
2021/12/17 06:42:16;;;;;;;85.85;35.50;;;;;;;7.31;100.00;103963.41;5022603;28;20108;-66
2021/12/17 06:44:43;;;;;;;80.93;36.80;;;;;;;7.32;100.00;103965.13;5023634;28;20091;-66
2021/12/17 06:55:17;;;;;;;67.15;29.63;;;;;;;7.33;100.00;103950.44;5021795;28;20075;-66
2021/12/17 07:10:59;;;;;;;69.28;30.95;;;;;;;7.32;100.00;103958.78;5006530;28;20414;-66
2021/12/17 07:21:28;;;;;;;71.88;33.72;;;;;;;7.29;100.00;103971.72;5021443;28;20437;-66
2021/12/17 07:34:42;;;;;;;65.00;32.42;;;;;;;7.29;100.00;103947.09;5022561;28;20022;-66
2021/12/17 07:39:33;;;;;;;65.07;31.80;;;;;;;7.29;100.00;103954.44;5002470;28;20030;-67
2021/12/17 07:41:58;;;;;;;63.72;32.55;;;;;;;7.29;100.00;103943.50;5023599;28;20108;-66
2021/12/17 07:44:23;;;;;;;65.40;31.65;;;;;;;7.28;100.00;103953.56;5026485;28;20060;-66
2021/12/17 07:46:49;;;;;;;65.38;30.88;;;;;;;7.29;100.00;103952.56;5026620;28;20045;-66
2021/12/17 07:49:14;;;;;;;62.92;31.48;;;;;;;7.27;100.00;103940.91;5020371;28;20077;-66
2021/12/17 07:51:39;;;;;;;59.15;30.17;;;;;;;7.27;100.00;103945.50;5006332;28;20488;-66
2021/12/17 07:54:04;;;;;;;63.47;29.67;;;;;;;7.26;100.00;103950.13;5005201;28;20412;-67
2021/12/17 07:56:37;;;;;;;60.85;30.50;;;;;;;7.27;100.00;103948.25;5006298;28;20021;-66
2021/12/17 07:59:02;;;;;;;60.42;28.77;;;;;;;7.26;100.00;103955.59;5006194;28;20029;-67
2021/12/17 08:01:28;;;;;;;60.22;30.08;;;;;;;7.26;100.00;103947.38;5006498;28;20037;-66
2021/12/17 08:03:53;;;;;;;62.85;30.23;;;;;;;7.28;100.00;103948.09;5007301;28;20476;-66
2021/12/17 08:06:18;;;;;;;62.50;30.92;;;;;;;7.28;100.00;103959.03;5026029;28;20041;-66
2021/12/17 08:08:43;;;;;;;62.20;29.08;;;;;;;7.29;100.00;103955.31;5025491;28;20059;-66
2021/12/17 08:11:09;;;;;;;64.72;30.40;;;;;;;7.31;100.00;103968.00;5007853;28;20101;-66
2021/12/17 08:13:36;;;;;;;58.25;29.27;;;;;;;7.29;100.00;103971.72;5005559;28;20022;-67
2021/12/17 08:16:14;;;;;;;59.28;28.95;;;;;;;7.28;100.00;103977.31;5005765;28;20439;-68
2021/12/17 08:31:26;;;;;;;73.00;31.77;;;;;;;7.31;100.00;103982.53;5004044;28;20054;-66
2021/12/17 08:33:52;;;;;;;72.95;31.15;;;;;;;7.32;100.00;103973.31;5004966;28;20033;-66
2021/12/17 08:36:18;;;;;;;73.63;30.88;;;;;;;7.33;100.00;103971.44;5005096;28;20017;-66
2021/12/17 08:38:46;;;;;;;72.35;31.33;;;;;;;7.35;100.00;103977.66;5005221;28;20052;-66
2021/12/17 08:41:12;;;;;;;70.82;32.30;;;;;;;7.37;100.00;103989.34;5004600;28;20022;-67
2021/12/17 08:43:38;;;;;;;73.45;31.38;;;;;;;7.37;100.00;103987.47;5005130;28;20042;-66
2021/12/17 08:46:04;;;;;;;69.15;31.92;;;;;;;7.41;100.00;103985.34;5003748;28;20374;-66
2021/12/17 08:48:30;;;;;;;76.03;32.30;;;;;;;7.43;100.00;103986.94;5005396;28;20029;-66
2021/12/17 08:50:57;;;;;;;67.95;30.00;;;;;;;7.45;100.00;103979.47;5004979;28;20021;-66
2021/12/17 08:53:22;;;;;;;72.30;30.77;;;;;;;7.44;100.00;103974.13;5003133;28;20088;-66
2021/12/17 08:55:47;;;;;;;69.43;29.58;;;;;;;7.46;100.00;103977.59;5005580;28;20022;-66
2021/12/17 08:58:14;;;;;;;75.53;31.08;;;;;;;7.49;100.00;103977.31;5003913;28;20026;-66
2021/12/17 09:00:44;;;;;;;76.10;30.77;;;;;;;7.51;100.00;103975.34;5005473;28;20049;-66
2021/12/17 09:03:10;;;;;;;74.20;30.48;;;;;;;7.51;100.00;103983.53;5004228;28;20049;-66
2021/12/17 09:05:38;;;;;;;77.97;31.77;;;;;;;7.52;100.00;103974.34;5005389;28;20096;-67
2021/12/17 09:08:05;;;;;;;76.38;30.73;;;;;;;7.54;100.00;103983.25;5004254;28;20045;-67
2021/12/17 09:10:30;;;;;;;73.75;29.20;;;;;;;7.55;100.00;103987.72;5004518;28;20037;-66
2021/12/17 09:12:55;;;;;;;72.22;30.77;;;;;;;7.56;100.00;103991.34;5003516;28;20034;-66
2021/12/17 09:15:21;;;;;;;71.03;29.85;;;;;;;7.56;100.00;103994.09;5004921;28;20502;-66
2021/12/17 09:17:46;;;;;;;76.93;30.90;;;;;;;7.58;100.00;104000.28;4999895;28;20041;-66
2021/12/17 09:20:11;;;;;;;77.57;31.05;;;;;;;7.57;100.00;104007.63;5024757;28;20400;-66
2021/12/17 09:22:37;;;;;;;78.60;29.90;;;;;;;7.59;100.00;104010.22;5017452;28;20048;-67
2021/12/17 09:25:03;;;;;;;77.18;29.17;;;;;;;7.60;100.00;104011.94;5012462;28;20029;-69
2021/12/17 09:27:29;;;;;;;76.68;28.63;;;;;;;7.61;100.00;104013.69;5024631;28;20029;-66
2021/12/17 09:29:54;;;;;;;59.08;24.92;;;;;;;7.74;100.00;104012.47;5024624;28;20032;-66
2021/12/17 09:32:21;;;;;;;64.10;26.60;;;;;;;7.74;100.00;104009.72;5001399;28;20490;-65
2021/12/17 09:34:46;;;;;;;76.20;29.95;;;;;;;7.63;100.00;104017.16;5004488;28;20037;-66
2021/12/17 09:37:13;;;;;;;72.10;27.17;;;;;;;7.58;100.00;104014.81;5004055;28;20034;-66
2021/12/17 09:39:39;;;;;;;71.57;28.85;;;;;;;7.58;100.00;104003.00;5003960;28;20026;-66
2021/12/17 09:42:04;;;;;;;69.90;26.98;;;;;;;7.62;100.00;104015.44;5002662;28;20554;-66
2021/12/17 09:44:30;;;;;;;81.45;29.63;;;;;;;7.64;100.00;104008.81;5008218;28;20026;-66
2021/12/17 09:46:57;;;;;;;169.90;43.95;;;;;;;7.70;100.00;104021.94;5012645;28;20025;-66
2021/12/17 09:49:24;;;;;;;72.05;27.30;;;;;;;7.72;100.00;104019.97;5023522;28;20052;-66
2021/12/17 09:51:49;;;;;;;75.88;27.08;;;;;;;7.74;100.00;104031.63;5023709;28;20108;-66
2021/12/17 09:54:15;;;;;;;62.38;24.95;;;;;;;7.79;100.00;104028.47;5003668;28;20091;-66
2021/12/17 09:56:41;;;;;;;59.83;24.35;;;;;;;7.94;100.00;104026.28;5022270;28;20059;-66
2021/12/17 09:59:06;;;;;;;74.80;27.15;;;;;;;7.76;100.00;104032.38;5018382;28;20434;-67
2021/12/17 10:01:36;;;;;;;93.60;30.58;;;;;;;7.80;100.00;104044.75;5002717;28;20171;-67
2021/12/17 10:04:24;;;;;;;64.28;24.25;;;;;;;7.83;100.00;104042.78;5002909;28;20116;-67
2021/12/17 10:06:49;;;;;;;49.20;19.53;;;;;;;7.95;100.00;104038.94;4967981;28;1019573;-66
2021/12/17 10:09:16;;;;;;;51.50;20.88;;;;;;;7.89;100.00;104050.44;5023246;28;20123;-66
2021/12/17 10:12:06;;;;;;;54.47;19.83;;;;;;;8.25;99.69;104049.91;5024048;28;20037;-66
2021/12/17 10:14:32;;;;;;;58.97;22.35;;;;;;;7.80;100.00;104052.97;4989475;28;20083;-67
2021/12/17 10:17:09;;;;;;;51.95;19.92;;;;;;;8.05;100.00;104042.59;5011516;28;20571;-66
2021/12/17 10:20:01;;;;;;;49.28;18.20;;;;;;;8.23;100.00;104043.72;5024508;28;20032;-66
2021/12/17 10:22:26;;;;;;;45.28;17.58;;;;;;;7.97;100.00;104043.31;5015763;28;20038;-66
2021/12/17 10:25:05;;;;;;;52.70;17.67;;;;;;;7.99;100.00;104037.69;5005121;28;20026;-66
2021/12/17 10:27:36;;;;;;;42.75;15.68;;;;;;;8.09;100.00;104040.47;5014597;28;20022;-66
2021/12/17 10:30:20;;;;;;;44.45;16.38;;;;;;;8.07;100.00;104038.75;5005021;28;20103;-67
2021/12/17 10:32:50;;;;;;;53.45;18.33;;;;;;;7.83;100.00;104040.03;5006118;28;20033;-66
2021/12/17 10:35:20;;;;;;;47.38;17.88;;;;;;;7.94;100.00;104050.91;5024018;28;20053;-66
2021/12/17 10:37:52;;;;;;;56.28;19.20;;;;;;;7.79;100.00;104047.63;5007895;28;20049;-66
2021/12/17 10:40:33;;;;;;;53.13;18.75;;;;;;;8.03;100.00;104036.41;5022462;28;20024;-66
2021/12/17 10:43:12;;;;;;;50.00;17.75;;;;;;;7.84;100.00;104042.63;5007023;28;20030;-66
2021/12/17 10:45:42;;;;;;;47.53;17.58;;;;;;;7.77;100.00;104047.78;5006957;28;20199;-66
2021/12/17 10:50:48;;;;;;;47.30;17.02;;;;;;;7.95;100.00;104052.63;5010518;28;20820;-66
2021/12/17 10:53:13;;;;;;;39.88;14.80;;;;;;;7.89;100.00;104050.44;5002642;28;20026;-67
2021/12/17 10:55:38;;;;;;;31.45;12.23;;;;;;;8.19;99.70;104049.59;5009476;28;20385;-67
2021/12/17 10:58:08;;;;;;;40.03;15.27;;;;;;;7.92;100.00;104061.13;5002738;28;20125;-68
2021/12/17 11:00:34;;;;;;;38.97;15.23;;;;;;;7.89;100.00;104061.38;5005178;28;20073;-68
2021/12/17 11:03:02;;;;;;;28.90;11.27;;;;;;;8.24;99.38;104048.19;5020336;28;20745;-66
2021/12/17 11:05:33;;;;;;;33.33;14.13;;;;;;;8.12;100.00;104043.81;5024631;28;20032;-66
2021/12/17 11:07:58;;;;;;;30.60;12.27;;;;;;;7.99;100.00;104056.84;5018460;28;20056;-66
2021/12/17 11:10:31;;;;;;;25.35;8.70;;;;;;;8.43;97.26;104050.19;5014263;28;20022;-66
2021/12/17 11:12:56;;;;;;;38.65;12.80;;;;;;;8.11;99.17;104054.88;5023989;28;20084;-66
2021/12/17 11:15:27;;;;;;;28.15;10.48;;;;;;;8.14;99.46;104046.41;5024600;28;20160;-66
2021/12/17 11:17:58;;;;;;;28.17;9.75;;;;;;;8.37;97.41;104045.28;5008754;28;20106;-66
2021/12/17 11:20:27;;;;;;;32.00;10.93;;;;;;;8.07;98.90;104044.22;5016023;28;20030;-66
2021/12/17 11:22:54;;;;;;;32.58;12.80;;;;;;;8.09;99.52;104038.59;5027067;28;20476;-66
2021/12/17 11:25:22;;;;;;;33.70;13.10;;;;;;;7.94;100.00;104045.44;5027491;28;20030;-66
2021/12/17 11:27:47;;;;;;;36.05;13.43;;;;;;;7.84;100.00;104039.03;5028050;28;20128;-66
2021/12/17 11:30:19;;;;;;;35.30;13.35;;;;;;;7.87;100.00;104036.03;5014386;28;20108;-66
2021/12/17 11:32:46;;;;;;;34.83;13.60;;;;;;;7.89;100.00;104036.75;5022195;28;20743;-66
2021/12/17 11:35:18;;;;;;;28.48;10.48;;;;;;;8.11;100.00;104024.78;5006414;28;20112;-66
2021/12/17 11:37:46;;;;;;;31.10;12.85;;;;;;;7.99;100.00;104021.25;5008426;28;20125;-66
2021/12/17 11:40:34;;;;;;;24.42;10.75;;;;;;;8.20;98.75;104018.47;5013447;28;20327;-66
2021/12/17 11:43:14;;;;;;;28.98;11.38;;;;;;;8.15;100.00;104018.88;5012381;28;20037;-66
2021/12/17 11:45:41;;;;;;;27.55;10.48;;;;;;;8.11;100.00;104009.25;5010266;28;20021;-67
2021/12/17 11:48:22;;;;;;;30.13;11.55;;;;;;;8.00;100.00;104017.50;5012161;28;20040;-66
2021/12/17 11:51:13;;;;;;;25.90;11.02;;;;;;;8.11;100.00;104014.72;5008794;28;20061;-66
2021/12/17 11:53:59;;;;;;;29.75;11.45;;;;;;;8.27;100.00;104011.47;5011442;28;20791;-66
2021/12/17 11:56:35;;;;;;;28.52;12.18;;;;;;;8.06;100.00;104017.00;5012722;28;20472;-66
2021/12/17 11:59:01;;;;;;;26.60;10.00;;;;;;;8.14;100.00;104011.69;5012682;28;20077;-67
2021/12/17 12:02:01;;;;;;;23.85;8.48;;;;;;;8.42;98.81;104012.84;5027336;28;20108;-67
2021/12/17 12:04:32;;;;;;;22.50;8.50;;;;;;;8.36;96.76;104015.22;5026399;28;20091;-67
2021/12/17 12:07:06;;;;;;;18.85;8.10;;;;;;;8.30;97.82;104006.56;5011492;28;20041;-67
2021/12/17 12:09:57;;;;;;;20.20;7.13;;;;;;;8.54;97.29;104002.63;5006223;28;20033;-68
2021/12/17 12:12:34;;;;;;;18.88;7.70;;;;;;;8.19;98.65;104003.91;5022043;28;20052;-67
2021/12/17 12:15:27;;;;;;;16.67;7.18;;;;;;;8.45;97.24;104011.69;5017507;28;20030;-68
2021/12/17 12:17:58;;;;;;;19.15;8.45;;;;;;;8.30;96.96;104011.16;5006614;28;20038;-67
2021/12/17 12:20:40;;;;;;;14.07;6.30;;;;;;;8.31;96.44;104022.00;5007450;28;20061;-67
2021/12/17 12:23:20;;;;;;;17.23;7.72;;;;;;;8.03;97.51;104015.38;5012367;28;20041;-67
2021/12/17 12:26:11;;;;;;;15.75;5.55;;;;;;;7.98;98.93;104022.28;5025428;28;20033;-67
2021/12/17 12:28:46;;;;;;;16.38;7.07;;;;;;;8.15;97.10;104018.88;5014911;28;20095;-68
2021/12/17 12:31:17;;;;;;;13.35;5.68;;;;;;;8.30;95.48;104008.44;5011974;28;20101;-67
2021/12/17 12:33:58;;;;;;;13.07;5.80;;;;;;;8.22;95.10;104005.53;5021622;28;20362;-67
2021/12/17 12:36:47;;;;;;;14.23;6.22;;;;;;;7.85;97.51;104014.25;5015105;28;20112;-67
2021/12/17 12:39:22;;;;;;;13.73;5.38;;;;;;;7.80;97.38;104014.66;5021009;28;20033;-67
2021/12/17 12:42:10;;;;;;;12.30;6.00;;;;;;;8.06;97.69;104015.13;5006566;28;20022;-67
2021/12/17 12:44:41;;;;;;;9.02;3.85;;;;;;;8.15;96.35;104021.63;5007150;28;20435;-67
2021/12/17 12:47:09;;;;;;;10.13;5.15;;;;;;;8.09;93.67;104011.22;5005465;28;20245;-67
2021/12/17 12:50:04;;;;;;;12.27;5.65;;;;;;;8.18;94.52;103999.47;5006165;28;20095;-67
2021/12/17 12:52:30;;;;;;;10.27;4.97;;;;;;;7.78;96.37;104005.72;5004903;28;20026;-67
2021/12/17 12:54:59;;;;;;;10.27;5.27;;;;;;;7.71;97.26;104010.03;5005949;28;20105;-67
2021/12/17 12:57:32;;;;;;;9.18;4.43;;;;;;;7.73;97.08;104002.53;5006027;28;20299;-67
2021/12/17 13:00:01;;;;;;;10.52;4.65;;;;;;;7.69;97.52;104006.53;5007237;28;20040;-67
2021/12/17 13:02:27;;;;;;;8.75;4.50;;;;;;;7.72;96.51;103999.94;5006484;28;20045;-67
2021/12/17 13:04:55;;;;;;;8.15;4.20;;;;;;;7.89;95.11;104004.78;5005613;28;20338;-67
2021/12/17 13:07:34;;;;;;;7.25;3.45;;;;;;;8.04;94.39;104008.91;5005407;28;20046;-67
2021/12/17 13:10:26;;;;;;;4.75;2.28;;;;;;;8.47;91.54;104004.22;5006757;28;20396;-67
2021/12/17 13:21:32;;;;;;;9.73;5.15;;;;;;;7.75;93.85;104010.59;5001608;28;20096;-67
2021/12/17 13:24:20;;;;;;;9.05;4.35;;;;;;;7.77;94.69;104001.28;4986100;28;20037;-67
2021/12/17 13:26:49;;;;;;;10.52;5.28;;;;;;;7.62;95.06;103999.88;4999957;28;20029;-67
2021/12/17 13:29:21;;;;;;;9.50;4.93;;;;;;;7.70;94.90;104000.06;4984975;28;20568;-68
2021/12/17 13:32:01;;;;;;;9.50;5.25;;;;;;;7.58;96.69;104003.88;4985807;28;20481;-67
2021/12/17 13:34:34;;;;;;;9.32;5.43;;;;;;;7.72;94.19;103999.94;5002866;28;20037;-67
2021/12/17 13:37:16;;;;;;;10.90;5.15;;;;;;;7.73;94.32;103991.59;5005010;28;20073;-67
2021/12/17 13:39:47;;;;;;;12.50;5.47;;;;;;;7.71;94.17;104004.56;5005659;28;20034;-67
2021/12/17 13:42:29;;;;;;;9.70;4.88;;;;;;;7.54;96.44;104007.88;5004961;28;20537;-67
2021/12/17 13:45:04;;;;;;;9.13;4.90;;;;;;;7.69;94.39;104005.66;5004843;28;20483;-67
2021/12/17 13:47:37;;;;;;;5.13;2.92;;;;;;;8.15;91.97;104002.47;5003430;28;20030;-67
2021/12/17 13:50:18;;;;;;;10.38;5.30;;;;;;;7.55;95.19;103998.66;5005090;28;20022;-68
2021/12/17 13:52:58;;;;;;;8.95;4.05;;;;;;;7.70;93.16;103999.19;5003375;28;20060;-67
2021/12/17 13:55:41;;;;;;;9.02;4.60;;;;;;;7.54;95.26;104007.88;5004090;28;20014;-67
2021/12/17 13:58:12;;;;;;;11.15;5.13;;;;;;;7.56;94.86;104002.28;5004736;28;20033;-67
2021/12/17 14:00:40;;;;;;;6.97;3.60;;;;;;;7.72;93.27;104009.00;5005185;28;20029;-67
2021/12/17 14:03:09;;;;;;;8.20;5.10;;;;;;;7.65;93.61;103998.72;5004437;28;20022;-67
2021/12/17 14:05:45;;;;;;;9.90;5.30;;;;;;;7.46;95.18;103996.75;5004832;28;20356;-67
2021/12/17 14:08:14;;;;;;;10.00;5.40;;;;;;;7.50;95.43;104000.94;5001982;28;20484;-67
2021/12/17 14:10:40;;;;;;;6.85;4.20;;;;;;;7.87;91.79;104003.19;5003123;28;20029;-67
2021/12/17 14:13:16;;;;;;;11.25;6.03;;;;;;;7.60;94.50;104012.81;5002801;28;20030;-68
2021/12/17 14:15:43;;;;;;;10.52;6.28;;;;;;;7.44;95.66;104002.31;5014255;28;20029;-67